Time;durP1;ratioP1;P1;durP2;ratioP2;P2;SDS_P1;SDS_P2;PMS_P1;PMS_P2;Temp;Humidity;BMP_temperature;BMP_pressure;BME280_temperature;BME280_humidity;BME280_pressure;Samples;Min_cycle;Max_cycle;Signal;HPM_P1;HPM_P2
2023/02/04 00:01:15;;;;;;;29.30;20.80;;;;;;;;;;5099004;28;20416;-84
2023/02/04 00:03:44;;;;;;;24.55;20.27;;;;;;;;;;5099720;28;20262;-83
2023/02/04 00:06:11;;;;;;;22.43;20.13;;;;;;;;;;5099643;28;20249;-83
2023/02/04 00:08:38;;;;;;;26.90;21.73;;;;;;;;;;5100044;28;20473;-83
2023/02/04 00:11:05;;;;;;;27.60;20.00;;;;;;;;;;5099214;28;20999;-83
2023/02/04 00:13:32;;;;;;;29.87;20.07;;;;;;;;;;5098578;28;20229;-83
2023/02/04 00:16:00;;;;;;;25.92;19.42;;;;;;;;;;5099629;28;20525;-83
2023/02/04 00:18:26;;;;;;;28.95;21.50;;;;;;;;;;5099480;28;20705;-83
2023/02/04 00:20:55;;;;;;;34.80;21.27;;;;;;;;;;5098897;28;20210;-83
2023/02/04 00:23:22;;;;;;;29.40;21.03;;;;;;;;;;5098540;28;20444;-83
2023/02/04 00:25:49;;;;;;;27.47;20.77;;;;;;;;;;5098769;28;20965;-83
2023/02/04 00:28:16;;;;;;;34.80;21.63;;;;;;;;;;5099236;28;20455;-83
2023/02/04 00:30:43;;;;;;;29.87;20.83;;;;;;;;;;5099658;28;20202;-83
2023/02/04 00:33:10;;;;;;;28.25;20.80;;;;;;;;;;5098401;28;20430;-83
2023/02/04 00:35:37;;;;;;;28.75;21.02;;;;;;;;;;5098766;28;20271;-83
2023/02/04 00:38:06;;;;;;;26.50;21.08;;;;;;;;;;5099002;28;20616;-83
2023/02/04 00:40:33;;;;;;;29.13;20.50;;;;;;;;;;5098426;28;20198;-83
2023/02/04 00:43:00;;;;;;;24.93;19.30;;;;;;;;;;5099018;28;20440;-83
2023/02/04 00:45:27;;;;;;;36.87;20.83;;;;;;;;;;5098629;28;20522;-82
2023/02/04 00:47:55;;;;;;;22.03;20.00;;;;;;;;;;5099289;28;20452;-83
2023/02/04 00:50:23;;;;;;;26.83;20.77;;;;;;;;;;5099185;28;20461;-83
2023/02/04 00:52:51;;;;;;;36.43;21.37;;;;;;;;;;5098254;28;20820;-83
2023/02/04 00:55:26;;;;;;;32.23;22.63;;;;;;;;;;5098781;28;20487;-83
2023/02/04 00:57:53;;;;;;;31.67;20.03;;;;;;;;;;5099028;28;20861;-83
2023/02/04 01:00:20;;;;;;;37.13;22.63;;;;;;;;;;5097396;28;20453;-83
2023/02/04 01:02:47;;;;;;;26.40;20.80;;;;;;;;;;5098318;28;21035;-83
2023/02/04 01:05:14;;;;;;;32.53;20.23;;;;;;;;;;5098696;28;20460;-83
2023/02/04 01:07:41;;;;;;;23.35;21.05;;;;;;;;;;5098770;28;20198;-83
2023/02/04 01:10:09;;;;;;;34.70;22.53;;;;;;;;;;5099001;28;20202;-83
2023/02/04 01:12:37;;;;;;;24.10;20.93;;;;;;;;;;5098173;28;20473;-82
2023/02/04 01:15:04;;;;;;;28.50;20.90;;;;;;;;;;5098487;28;20868;-83
2023/02/04 01:17:32;;;;;;;34.60;21.35;;;;;;;;;;5098863;28;20427;-83
2023/02/04 01:19:59;;;;;;;27.17;21.50;;;;;;;;;;5098882;28;20198;-82
2023/02/04 01:22:26;;;;;;;26.30;20.70;;;;;;;;;;5098199;28;20434;-83
2023/02/04 01:24:53;;;;;;;47.10;23.10;;;;;;;;;;5098595;28;20280;-82
2023/02/04 01:27:20;;;;;;;27.30;21.57;;;;;;;;;;5098248;28;20725;-83
2023/02/04 01:29:48;;;;;;;24.90;21.87;;;;;;;;;;5098799;28;20457;-83
2023/02/04 01:32:15;;;;;;;29.90;21.00;;;;;;;;;;5098794;28;20452;-82
2023/02/04 01:34:42;;;;;;;25.58;19.90;;;;;;;;;;5102882;28;20480;-83
2023/02/04 01:37:09;;;;;;;29.50;20.70;;;;;;;;;;5102102;28;20222;-83
2023/02/04 01:39:36;;;;;;;28.23;20.33;;;;;;;;;;5102476;28;20481;-83
2023/02/04 01:42:04;;;;;;;33.30;22.20;;;;;;;;;;5101861;28;20562;-82
2023/02/04 01:44:31;;;;;;;31.38;20.48;;;;;;;;;;5102103;28;20448;-83
2023/02/04 01:46:59;;;;;;;26.87;20.53;;;;;;;;;;5101810;28;20604;-83
2023/02/04 01:49:27;;;;;;;23.38;19.30;;;;;;;;;;5101887;28;20436;-82
2023/02/04 01:51:54;;;;;;;37.42;22.23;;;;;;;;;;5101701;28;20202;-83
2023/02/04 01:54:21;;;;;;;33.60;21.40;;;;;;;;;;5101599;28;20201;-83
2023/02/04 01:56:50;;;;;;;24.40;20.70;;;;;;;;;;5101658;28;20547;-82
2023/02/04 01:59:18;;;;;;;31.43;21.03;;;;;;;;;;5101930;28;20457;-82
2023/02/04 02:01:46;;;;;;;31.07;21.30;;;;;;;;;;5101613;28;20447;-83
2023/02/04 02:04:16;;;;;;;26.92;20.20;;;;;;;;;;5101668;28;20477;-83
2023/02/04 02:06:46;;;;;;;31.57;19.60;;;;;;;;;;5101320;28;20644;-83
2023/02/04 02:09:14;;;;;;;28.85;19.25;;;;;;;;;;5101291;28;20443;-83
2023/02/04 02:11:41;;;;;;;32.17;20.87;;;;;;;;;;5101022;28;20202;-83
2023/02/04 02:14:08;;;;;;;35.30;20.70;;;;;;;;;;5101633;28;20498;-83
2023/02/04 02:16:35;;;;;;;35.07;21.97;;;;;;;;;;5101434;28;20264;-82
2023/02/04 02:19:02;;;;;;;24.40;20.13;;;;;;;;;;5099896;28;20452;-83
2023/02/04 02:21:35;;;;;;;29.40;20.00;;;;;;;;;;5100329;28;20238;-83
2023/02/04 02:24:16;;;;;;;32.10;18.45;;;;;;;;;;5100920;28;20471;-82
2023/02/04 02:26:43;;;;;;;27.47;19.73;;;;;;;;;;5101179;28;20215;-83
2023/02/04 02:29:11;;;;;;;25.87;19.50;;;;;;;;;;5100564;28;20791;-83
2023/02/04 02:31:38;;;;;;;28.45;19.75;;;;;;;;;;5100669;28;20456;-83
2023/02/04 02:34:05;;;;;;;20.60;18.53;;;;;;;;;;5100970;28;20257;-83
2023/02/04 02:36:32;;;;;;;24.70;19.38;;;;;;;;;;5100906;28;20479;-83
2023/02/04 02:38:59;;;;;;;22.27;19.42;;;;;;;;;;5100351;28;20235;-83
2023/02/04 02:41:27;;;;;;;29.80;19.90;;;;;;;;;;5100084;28;20202;-83
2023/02/04 02:43:54;;;;;;;21.30;19.00;;;;;;;;;;5100287;28;20207;-82
2023/02/04 02:46:21;;;;;;;22.08;19.73;;;;;;;;;;5100961;28;20226;-83
2023/02/04 02:48:48;;;;;;;27.85;20.35;;;;;;;;;;5100559;28;20202;-84
2023/02/04 02:51:15;;;;;;;23.30;19.63;;;;;;;;;;5100136;28;20679;-83
2023/02/04 02:53:42;;;;;;;25.83;20.27;;;;;;;;;;5100613;28;20214;-82
2023/02/04 02:56:10;;;;;;;27.37;19.87;;;;;;;;;;5100685;28;20656;-83
2023/02/04 02:58:38;;;;;;;24.73;18.88;;;;;;;;;;5100790;28;20429;-83
2023/02/04 03:01:06;;;;;;;25.27;19.15;;;;;;;;;;5100910;28;20201;-83
2023/02/04 03:03:34;;;;;;;21.17;19.33;;;;;;;;;;5100100;28;20210;-83
2023/02/04 03:06:04;;;;;;;27.15;20.30;;;;;;;;;;5100652;28;20217;-83
2023/02/04 03:08:31;;;;;;;24.08;20.08;;;;;;;;;;5100841;28;20203;-82
2023/02/04 03:10:58;;;;;;;22.27;19.98;;;;;;;;;;5100874;28;20240;-83
2023/02/04 03:13:26;;;;;;;23.07;18.30;;;;;;;;;;5100226;28;20233;-82
2023/02/04 03:15:55;;;;;;;30.35;19.08;;;;;;;;;;5100634;28;20447;-83
2023/02/04 03:18:23;;;;;;;20.98;18.88;;;;;;;;;;5100551;28;20198;-83
2023/02/04 03:20:51;;;;;;;25.30;19.52;;;;;;;;;;5100665;28;20213;-83
2023/02/04 03:23:18;;;;;;;24.15;20.38;;;;;;;;;;5099720;28;20232;-83
2023/02/04 03:25:45;;;;;;;22.55;19.75;;;;;;;;;;5100527;28;20628;-83
2023/02/04 03:28:12;;;;;;;24.65;20.88;;;;;;;;;;5100107;28;20624;-83
2023/02/04 03:30:39;;;;;;;27.52;20.17;;;;;;;;;;5099946;28;20263;-83
2023/02/04 03:33:07;;;;;;;23.13;20.48;;;;;;;;;;5099663;28;20280;-83
2023/02/04 03:35:34;;;;;;;23.30;20.15;;;;;;;;;;5100086;28;20283;-82
2023/02/04 03:38:01;;;;;;;21.02;18.95;;;;;;;;;;5099802;28;20215;-83
2023/02/04 03:40:28;;;;;;;23.63;19.45;;;;;;;;;;5099765;28;20206;-82
2023/02/04 03:42:55;;;;;;;27.15;19.70;;;;;;;;;;5099246;28;20256;-83
2023/02/04 03:45:23;;;;;;;28.33;20.40;;;;;;;;;;5099919;28;20225;-83
2023/02/04 03:47:50;;;;;;;21.67;19.60;;;;;;;;;;5100544;28;21139;-82
2023/02/04 03:50:19;;;;;;;26.65;19.83;;;;;;;;;;5099850;28;20199;-83
2023/02/04 03:52:47;;;;;;;24.13;19.77;;;;;;;;;;5099343;28;20232;-83
2023/02/04 03:55:14;;;;;;;21.90;19.00;;;;;;;;;;5099259;28;20287;-83
2023/02/04 03:57:41;;;;;;;30.13;19.60;;;;;;;;;;5099624;28;20255;-83
2023/02/04 04:00:09;;;;;;;26.40;18.60;;;;;;;;;;5099731;28;20202;-83
2023/02/04 04:02:36;;;;;;;30.83;19.42;;;;;;;;;;5097749;28;20255;-82
2023/02/04 04:05:04;;;;;;;24.20;18.47;;;;;;;;;;5099421;28;20230;-83
2023/02/04 04:07:32;;;;;;;25.23;20.92;;;;;;;;;;5099277;28;20505;-82
2023/02/04 04:09:59;;;;;;;27.95;19.42;;;;;;;;;;5099451;28;20226;-83
2023/02/04 04:12:26;;;;;;;23.48;20.67;;;;;;;;;;5098892;28;20648;-83
2023/02/04 04:14:53;;;;;;;21.50;19.50;;;;;;;;;;5099822;28;20229;-83
2023/02/04 04:17:20;;;;;;;29.37;20.03;;;;;;;;;;5099321;28;20267;-83
2023/02/04 04:19:48;;;;;;;21.52;19.70;;;;;;;;;;5099569;28;20427;-83
2023/02/04 04:22:15;;;;;;;21.10;19.37;;;;;;;;;;5098011;28;20208;-83
2023/02/04 04:24:43;;;;;;;34.35;19.05;;;;;;;;;;5099423;28;20969;-82
2023/02/04 04:27:10;;;;;;;24.35;19.48;;;;;;;;;;5099002;28;20209;-82
2023/02/04 04:29:37;;;;;;;22.75;19.45;;;;;;;;;;5098803;28;20202;-82
2023/02/04 04:32:05;;;;;;;25.17;19.20;;;;;;;;;;5098238;28;20610;-83
2023/02/04 04:34:32;;;;;;;20.35;18.50;;;;;;;;;;5098587;28;20679;-83
2023/02/04 04:36:59;;;;;;;20.75;18.75;;;;;;;;;;5098450;28;20214;-83
2023/02/04 04:39:26;;;;;;;20.77;18.70;;;;;;;;;;5099010;28;20206;-82
2023/02/04 04:41:54;;;;;;;20.48;18.25;;;;;;;;;;5098040;28;20440;-82
2023/02/04 04:44:21;;;;;;;22.80;20.33;;;;;;;;;;5098899;28;20205;-83
2023/02/04 04:46:48;;;;;;;19.83;17.95;;;;;;;;;;5098762;28;20202;-82
2023/02/04 04:49:16;;;;;;;20.37;18.70;;;;;;;;;;5098905;28;20652;-82
2023/02/04 04:51:43;;;;;;;23.40;19.17;;;;;;;;;;5098359;28;20527;-83
2023/02/04 04:54:10;;;;;;;21.77;19.67;;;;;;;;;;5098886;28;20456;-82
2023/02/04 04:56:37;;;;;;;20.90;18.95;;;;;;;;;;5098807;28;20483;-83
2023/02/04 04:59:05;;;;;;;20.50;18.50;;;;;;;;;;5098158;28;20207;-83
2023/02/04 05:01:32;;;;;;;20.20;18.35;;;;;;;;;;5097951;28;20720;-83
2023/02/04 05:03:59;;;;;;;19.70;18.37;;;;;;;;;;5098494;28;20206;-83
2023/02/04 05:06:26;;;;;;;20.20;18.80;;;;;;;;;;5100269;28;20985;-83
2023/02/04 05:08:53;;;;;;;18.70;17.50;;;;;;;;;;5103064;28;20255;-82
2023/02/04 05:11:21;;;;;;;20.88;18.73;;;;;;;;;;5102446;28;20210;-83
2023/02/04 05:13:48;;;;;;;20.30;18.55;;;;;;;;;;5102946;28;20251;-82
2023/02/04 05:16:17;;;;;;;19.02;17.50;;;;;;;;;;5102535;28;20282;-83
2023/02/04 05:18:44;;;;;;;19.48;18.08;;;;;;;;;;5102831;28;20226;-83
2023/02/04 05:21:11;;;;;;;19.33;17.73;;;;;;;;;;5102973;28;20213;-83
2023/02/04 05:23:38;;;;;;;19.55;17.90;;;;;;;;;;5102425;28;20209;-82
2023/02/04 05:26:07;;;;;;;20.35;18.23;;;;;;;;;;5102251;28;20216;-83
2023/02/04 05:28:34;;;;;;;19.75;17.85;;;;;;;;;;5102210;28;20186;-83
2023/02/04 05:31:01;;;;;;;19.60;17.98;;;;;;;;;;5102467;28;20274;-83
2023/02/04 05:33:30;;;;;;;19.30;17.58;;;;;;;;;;5101993;28;20205;-83
2023/02/04 05:35:57;;;;;;;20.75;18.60;;;;;;;;;;5102336;28;20214;-82
2023/02/04 05:38:24;;;;;;;19.40;17.95;;;;;;;;;;5102026;28;20642;-82
2023/02/04 05:40:51;;;;;;;19.48;18.17;;;;;;;;;;5101841;28;20206;-82
2023/02/04 05:43:18;;;;;;;20.23;18.45;;;;;;;;;;5101138;28;20191;-82
2023/02/04 05:45:44;;;;;;;19.02;17.60;;;;;;;;;;5102006;28;20661;-82
2023/02/04 05:48:11;;;;;;;19.83;18.27;;;;;;;;;;5102234;28;20322;-83
2023/02/04 05:50:40;;;;;;;19.45;18.17;;;;;;;;;;5101967;28;20206;-83
2023/02/04 05:53:07;;;;;;;19.27;17.90;;;;;;;;;;5101700;28;20256;-83
2023/02/04 05:55:34;;;;;;;19.65;18.17;;;;;;;;;;5101631;28;20765;-83
2023/02/04 05:58:01;;;;;;;20.00;18.10;;;;;;;;;;5101777;28;20202;-82
2023/02/04 06:00:28;;;;;;;19.52;17.98;;;;;;;;;;5101670;28;20202;-83
2023/02/04 06:02:55;;;;;;;19.92;18.10;;;;;;;;;;5100429;28;20216;-82
2023/02/04 06:05:22;;;;;;;20.20;18.65;;;;;;;;;;5101409;28;20219;-83
2023/02/04 06:07:50;;;;;;;19.10;17.48;;;;;;;;;;5101766;28;20198;-82
2023/02/04 06:10:17;;;;;;;20.40;18.85;;;;;;;;;;5101191;28;20246;-83
2023/02/04 06:12:44;;;;;;;19.42;17.90;;;;;;;;;;5100829;28;20255;-83
2023/02/04 06:15:11;;;;;;;20.30;18.70;;;;;;;;;;5101617;28;20288;-82
2023/02/04 06:17:38;;;;;;;20.23;18.90;;;;;;;;;;5100540;28;20753;-83
2023/02/04 06:20:06;;;;;;;20.73;19.00;;;;;;;;;;5101452;28;20201;-82
2023/02/04 06:22:33;;;;;;;19.88;18.35;;;;;;;;;;5100786;28;20205;-83
2023/02/04 06:25:01;;;;;;;19.60;18.40;;;;;;;;;;5101195;28;20275;-83
2023/02/04 06:27:28;;;;;;;21.25;19.15;;;;;;;;;;5101245;28;20251;-83
2023/02/04 06:29:56;;;;;;;18.90;17.90;;;;;;;;;;5101226;28;20258;-83
2023/02/04 06:32:23;;;;;;;18.80;17.70;;;;;;;;;;5100932;28;20202;-83
2023/02/04 06:34:50;;;;;;;19.65;18.35;;;;;;;;;;5100658;28;20271;-83
2023/02/04 06:37:17;;;;;;;19.70;18.45;;;;;;;;;;5100975;28;20255;-83
2023/02/04 06:39:45;;;;;;;20.25;18.95;;;;;;;;;;5101250;28;20220;-83
2023/02/04 06:42:13;;;;;;;20.08;18.38;;;;;;;;;;5100278;28;20218;-83
2023/02/04 06:44:40;;;;;;;19.83;18.15;;;;;;;;;;5100762;28;20225;-83
2023/02/04 06:47:07;;;;;;;20.10;18.48;;;;;;;;;;5101021;28;20206;-83
2023/02/04 06:49:34;;;;;;;21.13;19.50;;;;;;;;;;5100958;28;20206;-83
2023/02/04 06:52:01;;;;;;;20.08;18.55;;;;;;;;;;5100864;28;20233;-83
2023/02/04 06:54:28;;;;;;;19.95;18.58;;;;;;;;;;5101295;28;20541;-83
2023/02/04 06:56:55;;;;;;;20.88;19.38;;;;;;;;;;5100817;28;20198;-83
2023/02/04 06:59:26;;;;;;;20.73;19.05;;;;;;;;;;5100151;28;20659;-82
2023/02/04 07:01:53;;;;;;;20.33;18.65;;;;;;;;;;5099893;28;20194;-83
2023/02/04 07:04:20;;;;;;;20.15;18.65;;;;;;;;;;5099418;28;20214;-83
2023/02/04 07:06:47;;;;;;;20.20;18.77;;;;;;;;;;5100786;28;20262;-83
2023/02/04 07:09:14;;;;;;;21.33;19.88;;;;;;;;;;5101321;28;20201;-84
2023/02/04 07:11:41;;;;;;;20.60;19.00;;;;;;;;;;5100184;28;20216;-83
2023/02/04 07:14:09;;;;;;;20.85;19.55;;;;;;;;;;5100924;28;20251;-83
2023/02/04 07:16:37;;;;;;;21.20;19.80;;;;;;;;;;5099572;28;20295;-80
2023/02/04 07:19:05;;;;;;;22.10;20.05;;;;;;;;;;5098592;28;20275;-81
2023/02/04 07:21:32;;;;;;;20.70;18.88;;;;;;;;;;5098803;28;20209;-80
2023/02/04 07:23:59;;;;;;;21.88;19.95;;;;;;;;;;5098824;28;20225;-81
2023/02/04 07:26:26;;;;;;;20.48;18.83;;;;;;;;;;5099785;28;20231;-80
2023/02/04 07:28:53;;;;;;;19.75;18.63;;;;;;;;;;5099398;28;20200;-80
2023/02/04 07:31:20;;;;;;;21.02;19.45;;;;;;;;;;5098084;28;20205;-80
2023/02/04 07:33:48;;;;;;;19.75;18.65;;;;;;;;;;5098565;28;20224;-81
2023/02/04 07:36:15;;;;;;;21.48;19.75;;;;;;;;;;5098598;28;20250;-80
2023/02/04 07:38:42;;;;;;;20.90;19.50;;;;;;;;;;5099072;28;20266;-81
2023/02/04 07:41:09;;;;;;;20.42;19.10;;;;;;;;;;5098448;28;20204;-80
2023/02/04 07:43:36;;;;;;;21.23;19.83;;;;;;;;;;5097934;28;20207;-79
2023/02/04 07:46:04;;;;;;;20.00;18.80;;;;;;;;;;5099062;28;20229;-80
2023/02/04 07:48:31;;;;;;;20.88;19.50;;;;;;;;;;5098851;28;20247;-80
2023/02/04 07:51:00;;;;;;;20.67;19.48;;;;;;;;;;5099677;28;20232;-80
2023/02/04 07:53:27;;;;;;;20.60;19.17;;;;;;;;;;5099854;28;20538;-80
2023/02/04 07:55:54;;;;;;;21.23;19.50;;;;;;;;;;5100367;28;20286;-81
2023/02/04 07:58:21;;;;;;;21.42;19.58;;;;;;;;;;5100759;28;20248;-80
2023/02/04 08:00:48;;;;;;;21.08;19.65;;;;;;;;;;5100446;28;20246;-81
2023/02/04 08:03:16;;;;;;;21.45;19.92;;;;;;;;;;5099893;28;20217;-81
2023/02/04 08:05:43;;;;;;;22.17;20.60;;;;;;;;;;5099416;28;20233;-82
2023/02/04 08:08:11;;;;;;;21.10;19.58;;;;;;;;;;5099734;28;20254;-82
2023/02/04 08:10:38;;;;;;;20.40;19.05;;;;;;;;;;5100450;28;20235;-81
2023/02/04 08:13:05;;;;;;;20.73;19.20;;;;;;;;;;5099866;28;20627;-81
2023/02/04 08:15:32;;;;;;;21.85;19.67;;;;;;;;;;5100891;28;20248;-80
2023/02/04 08:18:02;;;;;;;20.85;19.65;;;;;;;;;;5100094;28;20236;-80
2023/02/04 08:20:29;;;;;;;20.42;19.08;;;;;;;;;;5099012;28;20637;-81
2023/02/04 08:22:56;;;;;;;21.10;19.52;;;;;;;;;;5098358;28;20258;-81
2023/02/04 08:25:25;;;;;;;21.23;19.73;;;;;;;;;;5098696;28;20631;-81
2023/02/04 08:27:52;;;;;;;21.13;19.73;;;;;;;;;;5098419;28;20201;-81
2023/02/04 08:30:19;;;;;;;21.75;19.67;;;;;;;;;;5098519;28;20204;-81
2023/02/04 08:32:46;;;;;;;20.83;19.52;;;;;;;;;;5098454;28;20211;-81
2023/02/04 08:35:13;;;;;;;21.50;20.30;;;;;;;;;;5098545;28;20233;-81
2023/02/04 08:37:40;;;;;;;22.73;21.30;;;;;;;;;;5098656;28;20205;-82
2023/02/04 08:40:07;;;;;;;22.05;20.65;;;;;;;;;;5098454;28;20209;-82
2023/02/04 08:42:35;;;;;;;21.90;20.50;;;;;;;;;;5097575;28;20259;-82
2023/02/04 08:45:02;;;;;;;21.55;19.98;;;;;;;;;;5098687;28;20630;-81
2023/02/04 08:47:30;;;;;;;21.38;20.15;;;;;;;;;;5098930;28;20206;-82
2023/02/04 08:49:57;;;;;;;21.00;19.60;;;;;;;;;;5098889;28;20245;-82
2023/02/04 08:52:24;;;;;;;22.00;20.70;;;;;;;;;;5098458;28;20303;-81
2023/02/04 08:54:51;;;;;;;21.73;20.45;;;;;;;;;;5098319;28;20351;-80
2023/02/04 08:57:18;;;;;;;22.75;20.88;;;;;;;;;;5097717;28;20197;-80
2023/02/04 08:59:46;;;;;;;21.30;19.90;;;;;;;;;;5097782;28;20371;-81
2023/02/04 09:02:13;;;;;;;21.15;19.90;;;;;;;;;;5096958;28;20263;-80
2023/02/04 09:04:40;;;;;;;20.88;19.70;;;;;;;;;;5098426;28;20225;-85
2023/02/04 09:07:07;;;;;;;21.30;20.17;;;;;;;;;;5098712;28;20207;-82
2023/02/04 09:09:34;;;;;;;21.50;20.20;;;;;;;;;;5098791;28;20228;-82
2023/02/04 09:12:02;;;;;;;21.13;19.98;;;;;;;;;;5097973;28;20452;-82
2023/02/04 09:14:29;;;;;;;20.58;19.42;;;;;;;;;;5078179;28;20677;-81
2023/02/04 09:16:57;;;;;;;21.15;19.88;;;;;;;;;;5078019;28;20206;-82
2023/02/04 09:19:24;;;;;;;22.77;21.23;;;;;;;;;;5077911;28;20757;-82
2023/02/04 09:21:52;;;;;;;21.60;20.33;;;;;;;;;;5077819;28;20242;-82
2023/02/04 09:24:22;;;;;;;21.33;19.75;;;;;;;;;;5078400;28;20578;-83
2023/02/04 09:26:49;;;;;;;21.42;20.15;;;;;;;;;;5077545;28;20215;-82
2023/02/04 09:29:16;;;;;;;20.88;19.67;;;;;;;;;;5078367;28;20206;-82
2023/02/04 09:31:43;;;;;;;20.48;19.48;;;;;;;;;;5077470;28;20260;-82
2023/02/04 09:34:11;;;;;;;21.90;20.60;;;;;;;;;;5077537;28;20207;-81
2023/02/04 09:36:38;;;;;;;21.67;20.17;;;;;;;;;;5077506;28;20269;-81
2023/02/04 09:39:06;;;;;;;21.33;20.17;;;;;;;;;;5076584;28;20469;-81
2023/02/04 09:41:33;;;;;;;20.88;19.60;;;;;;;;;;5076927;28;20563;-81
2023/02/04 09:44:01;;;;;;;21.27;20.10;;;;;;;;;;5077565;28;20233;-81
2023/02/04 09:46:29;;;;;;;21.50;20.00;;;;;;;;;;5077075;28;20352;-80
2023/02/04 09:48:56;;;;;;;21.88;20.48;;;;;;;;;;5077605;28;20411;-81
2023/02/04 09:51:27;;;;;;;21.20;20.00;;;;;;;;;;5077065;28;20291;-81
2023/02/04 09:53:54;;;;;;;22.02;20.83;;;;;;;;;;5079552;28;20429;-81
2023/02/04 09:56:21;;;;;;;22.50;21.20;;;;;;;;;;5081351;28;20226;-80
2023/02/04 09:58:48;;;;;;;22.52;21.20;;;;;;;;;;5080296;28;20269;-79
2023/02/04 10:01:16;;;;;;;21.80;20.60;;;;;;;;;;5079869;28;20203;-81
2023/02/04 10:03:46;;;;;;;22.85;21.65;;;;;;;;;;5080645;28;20268;-81
2023/02/04 10:06:13;;;;;;;22.13;20.92;;;;;;;;;;5081041;28;20256;-81
2023/02/04 10:08:42;;;;;;;22.08;20.88;;;;;;;;;;5080449;28;20252;-81
2023/02/04 10:11:10;;;;;;;21.50;20.40;;;;;;;;;;5080993;28;20202;-81
2023/02/04 10:13:40;;;;;;;21.98;20.77;;;;;;;;;;5079545;28;20206;-80
2023/02/04 10:16:11;;;;;;;22.38;21.08;;;;;;;;;;5080501;28;20230;-81
2023/02/04 10:18:38;;;;;;;23.30;22.00;;;;;;;;;;5081421;28;20218;-80
2023/02/04 10:21:09;;;;;;;22.13;20.92;;;;;;;;;;5080824;28;20260;-80
2023/02/04 10:23:36;;;;;;;23.05;21.48;;;;;;;;;;5079134;28;20195;-80
2023/02/04 10:26:05;;;;;;;21.60;20.42;;;;;;;;;;5079296;28;20649;-81
2023/02/04 10:28:35;;;;;;;21.27;20.17;;;;;;;;;;5080341;28;20222;-80
2023/02/04 10:31:02;;;;;;;21.30;20.20;;;;;;;;;;5080441;28;20267;-80
2023/02/04 10:33:30;;;;;;;21.73;20.52;;;;;;;;;;5080060;28;20276;-81
2023/02/04 10:35:57;;;;;;;21.13;20.02;;;;;;;;;;5097782;28;20221;-80
2023/02/04 10:38:25;;;;;;;20.60;19.50;;;;;;;;;;5100283;28;20222;-80
2023/02/04 10:41:01;;;;;;;20.20;19.00;;;;;;;;;;5099928;28;20202;-81
2023/02/04 10:43:29;;;;;;;20.10;18.90;;;;;;;;;;5099984;28;20194;-81
2023/02/04 10:45:57;;;;;;;21.00;19.90;;;;;;;;;;5100381;28;20464;-81
2023/02/04 10:48:24;;;;;;;20.80;19.70;;;;;;;;;;5100349;28;20291;-81
2023/02/04 10:50:51;;;;;;;20.90;19.83;;;;;;;;;;5100501;28;20205;-80
2023/02/04 10:56:05;;;;;;;20.70;19.60;;;;;;;;;;5100242;28;20220;-80
2023/02/04 10:58:33;;;;;;;20.27;19.20;;;;;;;;;;5100257;28;20483;-80
2023/02/04 11:01:01;;;;;;;21.25;20.15;;;;;;;;;;5100312;28;20470;-81
2023/02/04 11:03:30;;;;;;;20.83;19.73;;;;;;;;;;5099307;28;20218;-81
2023/02/04 11:05:58;;;;;;;21.13;19.90;;;;;;;;;;5099597;28;20488;-81
2023/02/04 11:08:34;;;;;;;22.00;20.80;;;;;;;;;;5100551;28;20228;-81
2023/02/04 11:11:02;;;;;;;21.70;20.50;;;;;;;;;;5099917;28;20444;-81
2023/02/04 11:13:40;;;;;;;21.97;20.70;;;;;;;;;;5099685;28;20206;-81
2023/02/04 11:16:09;;;;;;;21.90;20.70;;;;;;;;;;5099957;28;20496;-81
2023/02/04 11:18:44;;;;;;;22.63;21.42;;;;;;;;;;5100406;28;20222;-80
2023/02/04 11:21:14;;;;;;;22.37;21.07;;;;;;;;;;5100229;28;20187;-81
2023/02/04 11:23:41;;;;;;;22.40;21.20;;;;;;;;;;5099094;28;20423;-80
2023/02/04 11:26:10;;;;;;;23.63;22.20;;;;;;;;;;5099555;28;20824;-80
2023/02/04 11:28:55;;;;;;;26.85;24.80;;;;;;;;;;5099251;28;20242;-80
2023/02/04 11:31:39;;;;;;;22.50;21.30;;;;;;;;;;5097721;28;20206;-81
2023/02/04 11:34:24;;;;;;;23.53;22.23;;;;;;;;;;5099126;28;20490;-81
2023/02/04 11:36:55;;;;;;;21.95;20.75;;;;;;;;;;5098756;28;20457;-81
2023/02/04 11:39:23;;;;;;;22.30;21.20;;;;;;;;;;5097275;28;20696;-75
2023/02/04 11:41:50;;;;;;;22.30;20.90;;;;;;;;;;5093735;28;20468;-75
2023/02/04 11:44:18;;;;;;;21.93;20.73;;;;;;;;;;5094839;28;20467;-75
2023/02/04 11:46:51;;;;;;;21.80;20.70;;;;;;;;;;5094499;28;20452;-75
2023/02/04 11:49:19;;;;;;;21.20;20.07;;;;;;;;;;5095089;28;20264;-75
2023/02/04 11:51:47;;;;;;;22.00;20.80;;;;;;;;;;5094024;28;20835;-76
2023/02/04 11:54:15;;;;;;;21.50;20.40;;;;;;;;;;5093809;28;20970;-76
2023/02/04 11:56:42;;;;;;;20.97;19.87;;;;;;;;;;5094003;28;20516;-75
2023/02/04 11:59:10;;;;;;;22.55;21.35;;;;;;;;;;5094331;28;20484;-76
2023/02/04 12:01:37;;;;;;;21.37;20.27;;;;;;;;;;5092386;28;20206;-75
2023/02/04 12:04:06;;;;;;;21.23;20.13;;;;;;;;;;5094323;28;20494;-76
2023/02/04 12:06:35;;;;;;;20.80;19.70;;;;;;;;;;5093882;28;21206;-76
2023/02/04 12:09:05;;;;;;;21.07;19.97;;;;;;;;;;5094019;28;20459;-77
2023/02/04 12:11:32;;;;;;;21.30;20.10;;;;;;;;;;5093315;28;20447;-76
2023/02/04 12:17:13;;;;;;;21.27;20.17;;;;;;;;;;5092038;28;20423;-76
2023/02/04 12:19:41;;;;;;;20.37;19.33;;;;;;;;;;5094347;28;20519;-76
2023/02/04 12:22:08;;;;;;;20.03;19.03;;;;;;;;;;5093807;28;20452;-76
2023/02/04 12:24:35;;;;;;;24.80;23.13;;;;;;;;;;5094109;28;20999;-77
2023/02/04 12:27:02;;;;;;;21.65;20.65;;;;;;;;;;5093359;28;20468;-77
2023/02/04 12:29:29;;;;;;;22.60;21.30;;;;;;;;;;5089246;28;20203;-88
2023/02/04 12:31:56;;;;;;;22.23;21.03;;;;;;;;;;5088567;28;20456;-82
2023/02/04 12:34:23;;;;;;;23.00;21.70;;;;;;;;;;5097647;28;20911;-74
2023/02/04 12:36:51;;;;;;;22.13;20.97;;;;;;;;;;5087198;28;20466;-74
2023/02/04 12:39:18;;;;;;;21.90;20.60;;;;;;;;;;5073556;28;20469;-74
2023/02/04 12:41:45;;;;;;;22.70;21.50;;;;;;;;;;5072810;28;20858;-73
2023/02/04 12:44:14;;;;;;;21.97;20.87;;;;;;;;;;5073626;28;20507;-74
2023/02/04 12:46:41;;;;;;;22.25;20.77;;;;;;;;;;5072912;28;20450;-75
2023/02/04 12:49:08;;;;;;;22.13;21.03;;;;;;;;;;5073339;28;20210;-74
2023/02/04 12:51:35;;;;;;;22.33;21.23;;;;;;;;;;5072460;28;20904;-74
2023/02/04 12:54:03;;;;;;;22.20;21.10;;;;;;;;;;5073097;28;20866;-74
2023/02/04 12:56:30;;;;;;;21.50;20.40;;;;;;;;;;5073397;28;20444;-74
2023/02/04 12:58:57;;;;;;;21.13;19.92;;;;;;;;;;5073410;28;20473;-74
2023/02/04 13:01:24;;;;;;;21.90;20.80;;;;;;;;;;5072075;28;20211;-74
2023/02/04 13:03:51;;;;;;;22.37;20.90;;;;;;;;;;5073166;28;20453;-74
2023/02/04 13:06:18;;;;;;;21.77;20.57;;;;;;;;;;5073140;28;20465;-74
2023/02/04 13:08:45;;;;;;;22.40;20.90;;;;;;;;;;5073018;28;20449;-74
2023/02/04 13:11:13;;;;;;;21.73;20.63;;;;;;;;;;5072624;28;20466;-74
2023/02/04 13:13:40;;;;;;;21.42;20.35;;;;;;;;;;5076578;28;20506;-78
2023/02/04 13:16:07;;;;;;;20.33;19.33;;;;;;;;;;5091127;28;20229;-81
2023/02/04 13:18:34;;;;;;;20.87;19.77;;;;;;;;;;5101853;28;20452;-82
2023/02/04 13:21:01;;;;;;;21.45;20.35;;;;;;;;;;5100200;28;20495;-81
2023/02/04 13:23:28;;;;;;;21.00;19.90;;;;;;;;;;5099203;28;20240;-79
2023/02/04 13:25:55;;;;;;;19.75;18.80;;;;;;;;;;5094684;28;20831;-77
2023/02/04 13:28:24;;;;;;;21.30;20.27;;;;;;;;;;5095219;28;20542;-77
2023/02/04 13:30:51;;;;;;;22.50;21.40;;;;;;;;;;5100060;28;20426;-79
2023/02/04 13:33:18;;;;;;;22.37;21.27;;;;;;;;;;5100470;28;20670;-81
2023/02/04 13:35:45;;;;;;;22.67;21.57;;;;;;;;;;5097365;28;20468;-79
2023/02/04 13:38:12;;;;;;;22.25;21.15;;;;;;;;;;5098078;28;20938;-78
2023/02/04 13:40:39;;;;;;;22.27;21.10;;;;;;;;;;5077478;28;20231;-74
2023/02/04 13:43:06;;;;;;;24.10;22.80;;;;;;;;;;5076208;28;20453;-74
2023/02/04 13:45:34;;;;;;;23.77;22.47;;;;;;;;;;5076535;28;20474;-74
2023/02/04 13:48:01;;;;;;;23.70;22.50;;;;;;;;;;5075888;28;20469;-74
2023/02/04 13:50:28;;;;;;;22.80;21.70;;;;;;;;;;5076054;28;20909;-73
2023/02/04 13:52:55;;;;;;;22.80;21.70;;;;;;;;;;5076125;28;20452;-74
2023/02/04 13:55:23;;;;;;;22.52;21.42;;;;;;;;;;5076364;28;20805;-73
2023/02/04 13:57:50;;;;;;;21.08;19.98;;;;;;;;;;5075778;28;20206;-74
2023/02/04 14:00:17;;;;;;;22.10;21.00;;;;;;;;;;5076573;28;20238;-74
2023/02/04 14:02:47;;;;;;;22.48;21.38;;;;;;;;;;5075745;28;20215;-74
2023/02/04 14:05:14;;;;;;;21.93;20.83;;;;;;;;;;5076446;28;20271;-73
2023/02/04 14:07:41;;;;;;;21.35;20.25;;;;;;;;;;5075761;28;21011;-73
2023/02/04 14:10:08;;;;;;;21.07;20.07;;;;;;;;;;5075712;28;20688;-74
2023/02/04 14:12:35;;;;;;;21.07;20.07;;;;;;;;;;5075575;28;20858;-74
2023/02/04 14:15:02;;;;;;;21.20;20.10;;;;;;;;;;5075948;28;20466;-74
2023/02/04 14:17:29;;;;;;;21.33;20.23;;;;;;;;;;5076039;28;20247;-74
2023/02/04 14:19:57;;;;;;;20.93;19.93;;;;;;;;;;5075229;28;20519;-74
2023/02/04 14:22:24;;;;;;;21.90;20.80;;;;;;;;;;5075084;28;20497;-73
2023/02/04 14:24:51;;;;;;;21.40;20.23;;;;;;;;;;5075682;28;20451;-75